Greenhithe, United Kingdom
Current Conditions -  °F | °C
As of 10:50 PM on Friday 28 Nov 2014 (Local Time) from EGLC Reporting Station
Clear Clear  
Wind Chill: 12°   Ceiling: Unl
Heat Index: 12°   Visibility: 4mi
Dew Point: 10°   Wind: 9mph
Humidity: 88%   Direction: 70°ENE
Pressure: 29.74"   Gusts: NA
Location:  51.45°N, 0.28°E
Report Text: EGLC 282250Z AUTO 07008KT 7000 NCD 12/10 Q1007 RERA
Loading
Personal Weather Stations






























Interactive Weather Map New forecast layout! Learn more

10-Day Weather Forecast

Advertisements
Track Severe Weather on mobile